createdAt,value
2019-01-15T00:00:49.688Z,-0.8
2019-01-15T00:01:39.738Z,-0.8
2019-01-15T00:02:29.238Z,-0.8
2019-01-15T00:03:19.858Z,-0.8
2019-01-15T00:04:09.643Z,-0.8
2019-01-15T00:05:00.041Z,-0.9
2019-01-15T00:05:50.026Z,-0.8
2019-01-15T00:06:40.078Z,-0.8
2019-01-15T00:07:30.128Z,-0.8
2019-01-15T00:08:19.654Z,-0.9
2019-01-15T00:09:10.282Z,-0.8
2019-01-15T00:09:59.745Z,-0.8
2019-01-15T00:10:50.368Z,-0.9
2019-01-15T00:11:40.425Z,-0.9
2019-01-15T00:12:30.188Z,-1
2019-01-15T00:13:19.983Z,-1.1
2019-01-15T00:14:10.597Z,-1.2
2019-01-15T00:15:00.707Z,-1.2
2019-01-15T00:15:50.705Z,-1.3
2019-01-15T00:16:40.759Z,-1.3
2019-01-15T00:17:30.525Z,-1.3
2019-01-15T00:18:20.865Z,-1.3
2019-01-15T00:19:10.924Z,-1.3
2019-01-15T00:20:00.975Z,-1.3
2019-01-15T00:20:50.759Z,-1.3
2019-01-15T00:21:40.811Z,-1.3
2019-01-15T00:22:30.878Z,-1.3
2019-01-15T00:23:20.937Z,-1.4
2019-01-15T00:24:11.265Z,-1.4
2019-01-15T00:25:01.367Z,-1.3
2019-01-15T00:25:50.859Z,-1.3
2019-01-15T00:26:41.432Z,-1.4
2019-01-15T00:27:31.546Z,-1.4
2019-01-15T00:28:21.264Z,-1.3
2019-01-15T00:29:11.611Z,-1.3
2019-01-15T00:30:01.383Z,-1.3
2019-01-15T00:30:51.431Z,-1.4
2019-01-15T00:31:41.769Z,-1.4
2019-01-15T00:32:31.824Z,-1.3
2019-01-15T00:33:21.911Z,-1.4
2019-01-15T00:34:11.674Z,-1.4
2019-01-15T00:35:02.134Z,-1.5
2019-01-15T00:35:52.048Z,-1.4
2019-01-15T00:36:43.494Z,-1.4
2019-01-15T00:37:31.904Z,-1.6
2019-01-15T00:38:21.948Z,-1.5
2019-01-15T00:39:12.284Z,-1.4
2019-01-15T00:40:02.454Z,-1.3
2019-01-15T00:40:52.393Z,-1.3
2019-01-15T00:41:42.451Z,-1.4
2019-01-15T00:42:32.232Z,-1.4
2019-01-15T00:43:22.578Z,-1.2
2019-01-15T00:44:12.058Z,-1.1
2019-01-15T00:45:02.675Z,-1.1
2019-01-15T00:45:52.458Z,-1.2
2019-01-15T00:46:42.785Z,-1.3
2019-01-15T00:47:32.575Z,-1.4
2019-01-15T00:48:22.901Z,-1.4
2019-01-15T00:49:12.963Z,-1.4
2019-01-15T00:50:03.161Z,-1.5
2019-01-15T00:50:53.062Z,-1.3
2019-01-15T00:51:43.123Z,-1.3
2019-01-15T00:52:33.185Z,-1.3
2019-01-15T00:53:23.240Z,-1.4
2019-01-15T00:54:12.742Z,-1.5
2019-01-15T00:55:03.080Z,-1.4
2019-01-15T00:55:53.402Z,-1.4
2019-01-15T00:56:43.464Z,-1.4
2019-01-15T00:57:33.507Z,-1.4
2019-01-15T00:58:23.567Z,-1.4
2019-01-15T00:59:13.637Z,-1.5
2019-01-15T01:00:03.422Z,-1.5
2019-01-15T01:00:53.744Z,-1.5
2019-01-15T01:01:43.805Z,-1.5
2019-01-15T01:02:33.859Z,-1.6
2019-01-15T01:03:23.912Z,-1.6
2019-01-15T01:04:13.710Z,-1.6
2019-01-15T01:05:03.817Z,-1.6
2019-01-15T01:05:54.079Z,-1.6
2019-01-15T01:06:44.194Z,-1.4
2019-01-15T01:07:34.199Z,-1.4
2019-01-15T01:08:23.979Z,-1.4
2019-01-15T01:09:14.309Z,-1.4
2019-01-15T01:10:04.489Z,-1.5
2019-01-15T01:10:54.419Z,-1.5
2019-01-15T01:11:44.468Z,-1.5
2019-01-15T01:12:34.529Z,-1.5
2019-01-15T01:13:24.588Z,-1.7
2019-01-15T01:14:14.373Z,-1.8
2019-01-15T01:15:04.713Z,-1.7
2019-01-15T01:15:54.763Z,-1.8
2019-01-15T01:16:44.541Z,-1.9
2019-01-15T01:17:34.871Z,-1.6
2019-01-15T01:18:24.656Z,-1.6
2019-01-15T01:19:14.704Z,-1.7
2019-01-15T01:20:05.028Z,-1.8
2019-01-15T01:20:55.102Z,-1.7
2019-01-15T01:21:44.911Z,-1.7
2019-01-15T01:22:35.216Z,-1.8
2019-01-15T01:23:25.273Z,-1.7
2019-01-15T01:24:15.045Z,-1.8
2019-01-15T01:25:05.388Z,-1.9
2019-01-15T01:25:55.488Z,-1.9
2019-01-15T01:26:45.496Z,-1.9
2019-01-15T01:27:35.273Z,-1.8
2019-01-15T01:28:25.375Z,-1.9
2019-01-15T01:29:15.660Z,-1.9
2019-01-15T01:30:05.716Z,-1.9
2019-01-15T01:30:55.233Z,-1.9
2019-01-15T01:31:45.837Z,-1.9
2019-01-15T01:32:35.877Z,-1.9
2019-01-15T01:33:25.672Z,-1.8
2019-01-15T01:34:15.715Z,-1.8
2019-01-15T01:35:05.504Z,-1.8
2019-01-15T01:35:55.549Z,-1.9
2019-01-15T01:36:46.162Z,-1.9
2019-01-15T01:37:36.233Z,-2
2019-01-15T01:38:25.713Z,-2.1
2019-01-15T01:39:15.859Z,-2.1
2019-01-15T01:40:05.911Z,-2.1
2019-01-15T01:40:55.694Z,-2.2
2019-01-15T01:41:45.753Z,-2.2
2019-01-15T01:42:36.549Z,-2.2
2019-01-15T01:43:26.627Z,-2.3
2019-01-15T01:44:16.687Z,-2.3
2019-01-15T01:45:06.732Z,-2.3
2019-01-15T01:45:56.508Z,-2.3
2019-01-15T01:46:46.292Z,-2.3
2019-01-15T01:47:36.624Z,-2.4
2019-01-15T01:48:26.684Z,-2.4
2019-01-15T01:49:17.018Z,-2.5
2019-01-15T01:50:07.069Z,-2.6
2019-01-15T01:50:57.124Z,-2.7
2019-01-15T01:51:47.209Z,-2.6
2019-01-15T01:52:36.961Z,-2.5
2019-01-15T01:53:27.013Z,-2.6
2019-01-15T01:54:17.071Z,-2.6
2019-01-15T01:55:07.399Z,-2.6
2019-01-15T01:55:57.248Z,-2.6
2019-01-15T01:56:47.255Z,-2.5
2019-01-15T01:57:37.571Z,-2.4
2019-01-15T01:58:27.088Z,-2.3
2019-01-15T01:59:17.684Z,-2.3
2019-01-15T02:00:07.748Z,-2.2
2019-01-15T02:00:57.523Z,-2.1
2019-01-15T02:01:47.583Z,-2.1
2019-01-15T02:02:37.885Z,-2.1
2019-01-15T02:03:27.701Z,-2.1
2019-01-15T02:04:17.748Z,-2.1
2019-01-15T02:05:08.103Z,-2.1
2019-01-15T02:05:58.150Z,-2.1
2019-01-15T02:06:48.208Z,-2.2
2019-01-15T02:07:38.307Z,-2.2
2019-01-15T02:08:28.315Z,-2.1
2019-01-15T02:09:18.415Z,-2.2
2019-01-15T02:10:08.153Z,-2.3
2019-01-15T02:10:57.918Z,-2.3
2019-01-15T02:11:48.532Z,-2.2
2019-01-15T02:12:40.055Z,-2.2
2019-01-15T02:13:28.359Z,-2.3
2019-01-15T02:14:18.720Z,-2.3
2019-01-15T02:15:08.760Z,-2.3
2019-01-15T02:15:58.817Z,-2.3
2019-01-15T02:16:48.868Z,-2.3
2019-01-15T02:17:38.704Z,-2.2
2019-01-15T02:18:28.709Z,-2.3
2019-01-15T02:19:19.047Z,-2.3
2019-01-15T02:20:09.095Z,-2.3
2019-01-15T02:20:59.167Z,-2.3
2019-01-15T02:21:49.214Z,-2.3
2019-01-15T02:22:38.437Z,-2.2
2019-01-15T02:23:29.324Z,-2.3
2019-01-15T02:24:19.379Z,-2.3
2019-01-15T02:25:09.437Z,-2.2
2019-01-15T02:25:59.497Z,-2.1
2019-01-15T02:26:49.266Z,-2.1
2019-01-15T02:27:39.329Z,-2.1
2019-01-15T02:28:29.391Z,-2.2
2019-01-15T02:29:18.886Z,-2.2
2019-01-15T02:30:09.812Z,-2.1
2019-01-15T02:30:59.849Z,-2.1
2019-01-15T02:31:49.619Z,-2
2019-01-15T02:32:39.705Z,-2
2019-01-15T02:33:30.009Z,-1.9
2019-01-15T02:34:20.117Z,-1.8
2019-01-15T02:35:09.631Z,-1.8
2019-01-15T02:36:00.192Z,-1.9
2019-01-15T02:36:49.956Z,-1.9
2019-01-15T02:37:40.006Z,-1.9
2019-01-15T02:38:30.350Z,-1.9
2019-01-15T02:39:20.396Z,-1.8
2019-01-15T02:40:10.451Z,-1.8
2019-01-15T02:40:59.973Z,-1.8
2019-01-15T02:41:50.285Z,-1.8
2019-01-15T02:42:49.775Z,-1.8
2019-01-15T02:43:30.750Z,-1.8
2019-01-15T02:44:20.754Z,-1.9
2019-01-15T02:45:10.832Z,-1.9
2019-01-15T02:46:00.868Z,-1.9
2019-01-15T02:46:50.638Z,-1.9
2019-01-15T02:47:40.985Z,-1.9
2019-01-15T02:48:30.758Z,-1.9
2019-01-15T02:49:20.573Z,-1.9
2019-01-15T02:50:10.676Z,-1.9
2019-01-15T02:51:01.187Z,-1.9
2019-01-15T02:51:51.317Z,-2
2019-01-15T02:52:41.034Z,-2.1
2019-01-15T02:53:31.081Z,-2.1
2019-01-15T02:54:21.406Z,-2
2019-01-15T02:55:11.532Z,-2.1
2019-01-15T02:56:01.537Z,-2
2019-01-15T02:56:51.680Z,-2.1
2019-01-15T02:57:41.082Z,-2.2
2019-01-15T02:58:31.439Z,-2.3
2019-01-15T02:59:21.766Z,-2.4
2019-01-15T03:00:11.830Z,-2.3
2019-01-15T03:01:01.872Z,-2.3
2019-01-15T03:01:51.917Z,-2.3
2019-01-15T03:02:41.984Z,-2.4
2019-01-15T03:03:31.741Z,-2.5
2019-01-15T03:04:21.817Z,-2.5
2019-01-15T03:05:11.867Z,-2.5
2019-01-15T03:08:44.997Z,-2.6
2019-01-15T03:09:35.051Z,-2.6
2019-01-15T03:10:24.818Z,-2.7
2019-01-15T03:11:15.169Z,-2.7
2019-01-15T03:12:04.449Z,-2.8
2019-01-15T03:12:58.923Z,-2.8
2019-01-15T03:13:45.296Z,-2.8
2019-01-15T03:14:34.820Z,-2.9
2019-01-15T03:15:25.995Z,-2.9
2019-01-15T03:16:15.968Z,-2.9
2019-01-15T03:17:06.003Z,-2.8
2019-01-15T03:17:56.110Z,-2.8
2019-01-15T03:18:47.561Z,-2.8
2019-01-15T03:19:35.906Z,-2.8
2019-01-15T03:20:26.250Z,-2.8
2019-01-15T03:21:16.295Z,-2.8
2019-01-15T03:22:06.353Z,-2.8
2019-01-15T03:22:56.191Z,-2.8
2019-01-15T03:23:46.468Z,-2.9
2019-01-15T03:24:36.530Z,-2.9
2019-01-15T03:25:26.353Z,-2.9
2019-01-15T03:26:16.393Z,-2.9
2019-01-15T03:27:06.435Z,-2.8
2019-01-15T03:27:56.747Z,-2.8
2019-01-15T03:28:46.028Z,-2.9
2019-01-15T03:29:36.885Z,-3
2019-01-15T03:30:27.026Z,-3.1
2019-01-15T03:31:17.081Z,-2.9
2019-01-15T03:32:07.217Z,-2.9
2019-01-15T03:32:57.043Z,-2.9
2019-01-15T03:33:47.229Z,-2.9
2019-01-15T03:34:36.947Z,-2.9
2019-01-15T03:35:26.733Z,-3
2019-01-15T03:36:17.324Z,-3
2019-01-15T03:37:07.117Z,-2.9
2019-01-15T03:37:57.155Z,-2.9
2019-01-15T03:38:47.199Z,-3
2019-01-15T03:39:37.244Z,-3.1
2019-01-15T03:40:27.660Z,-3
2019-01-15T03:41:17.385Z,-2.9
2019-01-15T03:42:07.474Z,-3
2019-01-15T03:43:06.713Z,-3.1
2019-01-15T03:43:47.349Z,-3.1
2019-01-15T03:44:37.341Z,-3.1
2019-01-15T03:45:28.052Z,-3.1
2019-01-15T03:46:17.686Z,-3.3
2019-01-15T03:47:07.750Z,-3.4
2019-01-15T03:47:58.126Z,-3.4
2019-01-15T03:48:48.188Z,-3.6
2019-01-15T03:49:38.204Z,-3.7
2019-01-15T03:51:18.036Z,-3.9
2019-01-15T03:52:08.091Z,-3.9
2019-01-15T03:52:58.444Z,-3.9
2019-01-15T03:53:48.512Z,-3.9
2019-01-15T03:54:38.556Z,-4
2019-01-15T03:55:28.628Z,-4
2019-01-15T03:56:18.648Z,-3.9
2019-01-15T03:57:08.698Z,-3.9
2019-01-15T03:57:58.512Z,-3.9
2019-01-15T03:58:48.543Z,-3.9
2019-01-15T04:00:28.628Z,-3.5
2019-01-15T04:01:19.000Z,-3.4
2019-01-15T04:02:09.068Z,-3.3
2019-01-15T04:02:59.119Z,-3.3
2019-01-15T04:03:48.887Z,-3.4
2019-01-15T04:04:39.256Z,-3.4
2019-01-15T04:05:28.998Z,-3.4
2019-01-15T04:06:19.345Z,-3.4
2019-01-15T04:07:09.118Z,-3.4
2019-01-15T04:07:59.167Z,-3.4
2019-01-15T04:08:49.491Z,-3.4
2019-01-15T04:09:39.577Z,-3.3
2019-01-15T04:10:29.362Z,-3.2
2019-01-15T04:11:19.667Z,-3.2
2019-01-15T04:12:09.470Z,-3.3
2019-01-15T04:12:59.513Z,-3.4
2019-01-15T04:13:49.570Z,-3.4
2019-01-15T04:14:39.897Z,-3.4
2019-01-15T04:15:29.697Z,-3.4
2019-01-15T04:16:19.997Z,-3.3
2019-01-15T04:17:09.867Z,-3.2
2019-01-15T04:18:00.126Z,-3.2
2019-01-15T04:18:51.938Z,-3.2
2019-01-15T04:19:40.245Z,-3.3
2019-01-15T04:20:30.337Z,-3.3
2019-01-15T04:21:19.786Z,-3.1
2019-01-15T04:22:09.844Z,-3.1
2019-01-15T04:23:00.495Z,-3.3
2019-01-15T04:23:50.552Z,-3.2
2019-01-15T04:24:40.284Z,-3.3
2019-01-15T04:25:30.767Z,-3.4
2019-01-15T04:26:20.202Z,-3.4
2019-01-15T04:27:10.738Z,-3.5
2019-01-15T04:28:00.512Z,-3.6
2019-01-15T04:28:50.291Z,-3.4
2019-01-15T04:29:40.919Z,-3.5
2019-01-15T04:30:31.011Z,-3.6
2019-01-15T04:31:21.096Z,-3.5
2019-01-15T04:32:11.088Z,-3.4
2019-01-15T04:33:01.154Z,-3.4
2019-01-15T04:33:50.992Z,-3.4
2019-01-15T04:34:41.301Z,-3.3
2019-01-15T04:35:31.291Z,-3.3
2019-01-15T04:36:21.076Z,-3.3
2019-01-15T04:37:11.425Z,-3.2
2019-01-15T04:38:01.195Z,-3.2
2019-01-15T04:38:51.538Z,-3.2
2019-01-15T04:39:41.055Z,-3.1
2019-01-15T04:40:31.383Z,-3.1
2019-01-15T04:41:21.243Z,-3.1
2019-01-15T04:42:11.771Z,-3
2019-01-15T04:43:01.808Z,-2.9
2019-01-15T04:43:51.658Z,-2.9
2019-01-15T04:44:41.648Z,-2.9
2019-01-15T04:45:31.734Z,-2.9
2019-01-15T04:46:22.100Z,-2.9
2019-01-15T04:47:11.790Z,-2.9
2019-01-15T04:48:02.147Z,-2.9
2019-01-15T04:48:52.208Z,-3
2019-01-15T04:49:42.263Z,-3
2019-01-15T04:50:31.748Z,-3
2019-01-15T04:51:22.125Z,-2.9
2019-01-15T04:52:12.425Z,-3
2019-01-15T04:53:02.610Z,-3.1
2019-01-15T04:53:52.547Z,-3
2019-01-15T04:54:42.590Z,-3
2019-01-15T04:55:32.409Z,-2.9
2019-01-15T04:56:22.447Z,-2.9
2019-01-15T04:57:12.810Z,-2.9
2019-01-15T04:58:02.607Z,-2.8
2019-01-15T04:58:52.898Z,-2.8
2019-01-15T04:59:42.392Z,-2.6
2019-01-15T05:00:32.724Z,-2.6
2019-01-15T05:01:22.765Z,-2.6
2019-01-15T05:02:13.130Z,-2.6
2019-01-15T05:03:03.177Z,-2.6
2019-01-15T05:03:52.962Z,-2.7
2019-01-15T05:04:42.724Z,-2.8
2019-01-15T05:05:33.331Z,-2.9
2019-01-15T05:06:22.836Z,-2.9
2019-01-15T05:07:13.429Z,-2.9
2019-01-15T05:08:03.219Z,-2.9
2019-01-15T05:08:53.266Z,-2.9
2019-01-15T05:09:43.609Z,-2.9
2019-01-15T05:10:33.659Z,-2.8
2019-01-15T05:11:23.706Z,-2.8
2019-01-15T05:12:13.772Z,-2.8
2019-01-15T05:13:03.839Z,-2.7
2019-01-15T05:13:53.901Z,-2.6
2019-01-15T05:14:43.686Z,-2.6
2019-01-15T05:15:33.451Z,-2.6
2019-01-15T05:16:23.218Z,-2.6
2019-01-15T05:17:13.843Z,-2.6
2019-01-15T05:18:03.926Z,-2.6
2019-01-15T05:18:53.417Z,-2.5
2019-01-15T05:19:43.983Z,-2.4
2019-01-15T05:20:34.037Z,-2.3
2019-01-15T05:21:24.146Z,-2.2
2019-01-15T05:22:14.461Z,-2.1
2019-01-15T05:23:04.506Z,-2.1
2019-01-15T05:23:54.297Z,-2.1
2019-01-15T05:24:44.350Z,-2
2019-01-15T05:25:34.131Z,-2.1
2019-01-15T05:26:24.458Z,-2.1
2019-01-15T05:27:14.030Z,-2.1
2019-01-15T05:28:03.809Z,-2.1
2019-01-15T05:28:54.897Z,-2.1
2019-01-15T05:29:44.421Z,-2.1
2019-01-15T05:30:35.002Z,-2.1
2019-01-15T05:31:25.071Z,-2.1
2019-01-15T05:32:15.193Z,-2.1
2019-01-15T05:33:05.208Z,-2.1
2019-01-15T05:33:55.241Z,-2.1
2019-01-15T05:34:45.007Z,-2.1
2019-01-15T05:35:35.352Z,-2.1
2019-01-15T05:36:25.394Z,-2.1
2019-01-15T05:37:15.466Z,-2.2
2019-01-15T05:38:05.503Z,-2.2
2019-01-15T05:38:55.594Z,-2.3
2019-01-15T05:39:45.665Z,-2.3
2019-01-15T05:40:35.401Z,-2.3
2019-01-15T05:41:25.454Z,-2.4
2019-01-15T05:42:15.822Z,-2.5
2019-01-15T05:43:05.858Z,-2.6
2019-01-15T05:43:55.896Z,-2.6
2019-01-15T05:44:45.674Z,-2.7
2019-01-15T05:45:36.016Z,-2.7
2019-01-15T05:46:25.789Z,-2.8
2019-01-15T05:47:16.126Z,-2.8
2019-01-15T05:48:06.178Z,-2.7
2019-01-15T05:48:56.243Z,-2.7
2019-01-15T05:49:46.011Z,-2.6
2019-01-15T05:50:36.122Z,-2.6
2019-01-15T05:51:26.422Z,-2.6
2019-01-15T05:52:16.446Z,-2.6
2019-01-15T05:53:06.526Z,-2.6
2019-01-15T05:53:56.021Z,-2.6
2019-01-15T05:54:46.356Z,-2.5
2019-01-15T05:55:36.425Z,-2.5
2019-01-15T05:56:26.554Z,-2.5
2019-01-15T05:57:16.770Z,-2.4
2019-01-15T05:58:06.892Z,-2.4
2019-01-15T05:58:56.131Z,-2.4
2019-01-15T05:59:46.190Z,-2.4
2019-01-15T06:00:36.525Z,-2.4
2019-01-15T06:01:26.033Z,-2.4
2019-01-15T06:02:17.118Z,-2.4
2019-01-15T06:03:06.893Z,-2.4
2019-01-15T06:03:56.951Z,-2.5
2019-01-15T06:04:47.013Z,-2.5
2019-01-15T06:06:45.293Z,-2.6
2019-01-15T06:07:36.767Z,-2.6
2019-01-15T06:08:25.187Z,-2.6
2019-01-15T06:09:15.192Z,-2.6
2019-01-15T06:10:05.242Z,-2.6
2019-01-15T06:10:55.582Z,-2.5
2019-01-15T06:11:45.339Z,-2.5
2019-01-15T06:12:35.422Z,-2.5
2019-01-15T06:13:25.743Z,-2.6
2019-01-15T06:14:15.510Z,-2.6
2019-01-15T06:15:05.870Z,-2.6
2019-01-15T06:15:55.627Z,-2.6
2019-01-15T06:16:45.982Z,-2.7
2019-01-15T06:17:36.022Z,-2.7
2019-01-15T06:18:25.792Z,-2.7
2019-01-15T06:19:15.839Z,-2.7
2019-01-15T06:20:06.186Z,-2.7
2019-01-15T06:20:55.727Z,-2.7
2019-01-15T06:21:46.289Z,-2.8
2019-01-15T06:22:36.344Z,-2.8
2019-01-15T06:23:26.404Z,-2.8
2019-01-15T06:24:16.453Z,-2.8
2019-01-15T06:25:06.626Z,-2.8
2019-01-15T06:25:56.571Z,-2.7
2019-01-15T06:26:46.409Z,-2.7
2019-01-15T06:27:36.404Z,-2.6
2019-01-15T06:28:26.719Z,-2.6
2019-01-15T06:29:16.526Z,-2.6
2019-01-15T06:30:06.833Z,-2.6
2019-01-15T06:30:56.081Z,-2.6
2019-01-15T06:31:46.134Z,-2.6
2019-01-15T06:32:36.746Z,-2.6
2019-01-15T06:33:26.941Z,-2.6
2019-01-15T06:34:16.866Z,-2.6
2019-01-15T06:35:06.914Z,-2.6
2019-01-15T06:35:57.304Z,-2.6
2019-01-15T06:36:47.311Z,-2.5
2019-01-15T06:37:37.187Z,-2.5
2019-01-15T06:38:27.408Z,-2.5
2019-01-15T06:39:17.461Z,-2.5
2019-01-15T06:40:07.256Z,-2.5
2019-01-15T06:40:57.633Z,-2.5
2019-01-15T06:41:47.086Z,-2.4
2019-01-15T06:42:36.920Z,-2.4
2019-01-15T06:43:27.258Z,-2.4
2019-01-15T06:44:17.794Z,-2.4
2019-01-15T06:45:07.843Z,-2.4
2019-01-15T06:45:57.913Z,-2.4
2019-01-15T06:46:47.412Z,-2.4
2019-01-15T06:47:38.025Z,-2.3
2019-01-15T06:48:27.813Z,-2.3
2019-01-15T06:49:18.138Z,-2.3
2019-01-15T06:50:08.195Z,-2.2
2019-01-15T06:50:57.965Z,-2.2
2019-01-15T06:51:48.008Z,-2.1
2019-01-15T06:52:37.803Z,-2.1
2019-01-15T06:53:28.421Z,-2
2019-01-15T06:54:18.480Z,-2
2019-01-15T06:55:08.514Z,-1.9
2019-01-15T06:55:58.575Z,-1.9
2019-01-15T06:56:48.635Z,-1.8
2019-01-15T06:57:38.408Z,-1.8
2019-01-15T06:58:28.752Z,-1.8
2019-01-15T06:59:18.524Z,-1.7
2019-01-15T07:00:08.307Z,-1.7
2019-01-15T07:00:58.622Z,-1.6
2019-01-15T07:01:48.971Z,-1.7
2019-01-15T07:02:38.536Z,-1.7
2019-01-15T07:03:28.792Z,-1.8
2019-01-15T07:04:19.144Z,-1.8
2019-01-15T07:06:45.256Z,-1.8
2019-01-15T07:07:35.304Z,-1.8
2019-01-15T07:08:25.356Z,-1.8
2019-01-15T07:09:15.416Z,-1.8
2019-01-15T07:10:05.469Z,-1.8
2019-01-15T07:10:55.241Z,-1.8
2019-01-15T07:11:45.574Z,-1.9
2019-01-15T07:12:35.656Z,-1.9
2019-01-15T07:13:25.691Z,-1.9
2019-01-15T07:14:15.742Z,-2
2019-01-15T07:15:05.811Z,-2
2019-01-15T07:15:55.575Z,-2.1
2019-01-15T07:16:45.919Z,-2.1
2019-01-15T07:17:35.688Z,-2.1
2019-01-15T07:18:26.018Z,-2.1
2019-01-15T07:19:15.798Z,-2.1
2019-01-15T07:20:06.121Z,-2.1
2019-01-15T07:20:57.346Z,-2.1
2019-01-15T07:21:46.248Z,-2.2
2019-01-15T07:22:36.305Z,-2.2
2019-01-15T07:23:26.360Z,-2.2
2019-01-15T07:24:16.417Z,-2.3
2019-01-15T07:25:06.466Z,-2.2
2019-01-15T07:25:56.528Z,-2.2
2019-01-15T07:26:46.304Z,-2.3
2019-01-15T07:27:36.088Z,-2.3
2019-01-15T07:28:26.205Z,-2.4
2019-01-15T07:29:16.470Z,-2.4
2019-01-15T07:30:06.802Z,-2.4
2019-01-15T07:30:56.570Z,-2.4
2019-01-15T07:31:46.912Z,-2.5
2019-01-15T07:32:37.015Z,-2.6
2019-01-15T07:33:27.077Z,-2.6
2019-01-15T07:34:16.792Z,-2.6
2019-01-15T07:35:07.153Z,-2.6
2019-01-15T07:35:57.207Z,-2.6
2019-01-15T07:36:46.964Z,-2.6
2019-01-15T07:37:36.772Z,-2.6
2019-01-15T07:38:27.084Z,-2.4
2019-01-15T07:39:17.140Z,-2.4
2019-01-15T07:40:07.182Z,-2.3
2019-01-15T07:40:57.536Z,-2.3
2019-01-15T07:41:47.038Z,-2.2
2019-01-15T07:42:37.704Z,-2.2
2019-01-15T07:43:27.449Z,-2.2
2019-01-15T07:44:17.476Z,-2.2
2019-01-15T07:45:07.801Z,-2.1
2019-01-15T07:45:57.579Z,-2.1
2019-01-15T07:46:47.906Z,-2.1
2019-01-15T07:47:38.060Z,-1.9
2019-01-15T07:48:27.831Z,-1.9
2019-01-15T07:49:17.847Z,-1.9
2019-01-15T07:50:07.647Z,-1.9
2019-01-15T07:50:58.260Z,-1.9
2019-01-15T07:51:48.027Z,-1.8
2019-01-15T07:52:38.038Z,-1.7
2019-01-15T07:53:28.417Z,-1.7
2019-01-15T07:54:18.490Z,-1.6
2019-01-15T07:55:09.608Z,-1.6
2019-01-15T07:55:58.265Z,-1.4
2019-01-15T07:56:48.361Z,-1.4
2019-01-15T07:57:38.101Z,-1.6
2019-01-15T07:58:28.708Z,-1.6
2019-01-15T07:59:18.763Z,-1.6
2019-01-15T08:00:08.543Z,-1.4
2019-01-15T08:00:58.593Z,-1.4
2019-01-15T08:01:48.670Z,-1.4
2019-01-15T08:02:38.992Z,-1.4
2019-01-15T08:03:30.810Z,-1.4
2019-01-15T08:04:19.095Z,-1.4
2019-01-15T08:05:08.892Z,-1.3
2019-01-15T08:05:59.213Z,-1.3
2019-01-15T08:06:49.275Z,-1.1
2019-01-15T08:07:39.050Z,-1.3
2019-01-15T08:08:29.372Z,-1.3
2019-01-15T08:09:19.504Z,-1.1
2019-01-15T08:10:09.503Z,-1.1
2019-01-15T08:11:00.188Z,-1.1
2019-01-15T08:11:49.349Z,-1.1
2019-01-15T08:12:39.662Z,-1
2019-01-15T08:13:29.712Z,-1
2019-01-15T08:14:19.785Z,-1.1
2019-01-15T08:15:09.837Z,-1.2
2019-01-15T08:15:59.910Z,-1.1
2019-01-15T08:17:40.002Z,-0.8
2019-01-15T08:20:10.176Z,-0.8
2019-01-15T08:22:40.351Z,-0.9
2019-01-15T08:23:30.124Z,-0.8
2019-01-15T08:24:19.957Z,-0.7
2019-01-15T08:25:10.249Z,-0.5
2019-01-15T08:26:00.622Z,-0.5
2019-01-15T08:26:50.399Z,-0.4
2019-01-15T08:27:40.679Z,-0.3
2019-01-15T08:28:30.739Z,-0.4
2019-01-15T08:29:20.797Z,-0.3
2019-01-15T08:30:10.574Z,-0.2
2019-01-15T08:31:00.636Z,-0.3
2019-01-15T08:31:50.738Z,-0.3
2019-01-15T08:32:40.743Z,-0.4
2019-01-15T08:33:31.123Z,-0.5
2019-01-15T08:34:21.123Z,-0.4
2019-01-15T08:35:11.181Z,-0.4
2019-01-15T08:36:01.298Z,-0.3
2019-01-15T08:36:51.307Z,-0.3
2019-01-15T08:37:41.346Z,-0.3
2019-01-15T08:38:31.395Z,-0.1
2019-01-15T08:39:20.920Z,-0.1
2019-01-15T08:40:11.293Z,-0.3
2019-01-15T08:41:01.293Z,-0.1
2019-01-15T08:41:51.420Z,-0.2
2019-01-15T08:42:41.685Z,-0.1
2019-01-15T08:43:31.740Z,-0.2
2019-01-15T08:44:22.265Z,-0.3
2019-01-15T08:45:11.860Z,-0.1
2019-01-15T08:46:01.651Z,-0.1
2019-01-15T08:46:51.691Z,0
2019-01-15T08:47:42.043Z,0.2
2019-01-15T08:48:32.090Z,0.2
2019-01-15T08:49:22.148Z,0.1
2019-01-15T08:50:12.200Z,0.1
2019-01-15T08:51:02.245Z,0.1
2019-01-15T08:51:52.320Z,0.1
2019-01-15T08:52:42.362Z,0.1
2019-01-15T08:53:31.397Z,0
2019-01-15T08:54:22.472Z,0.1
2019-01-15T08:55:12.532Z,0.1
2019-01-15T08:56:02.597Z,0.1
2019-01-15T08:56:52.647Z,0.3
2019-01-15T08:57:42.706Z,0.3
2019-01-15T08:58:32.486Z,0.4
2019-01-15T08:59:22.871Z,0.3
2019-01-15T09:00:12.612Z,0.2
2019-01-15T09:01:02.959Z,0.1
2019-01-15T09:01:53.000Z,0.2
2019-01-15T09:02:43.051Z,0.3
2019-01-15T09:03:33.094Z,0.3
2019-01-15T09:04:22.891Z,-0.1
2019-01-15T09:05:12.672Z,-0.2
2019-01-15T09:06:02.987Z,-0.1
2019-01-15T09:06:53.459Z,-0.1
2019-01-15T09:07:43.109Z,0.1
2019-01-15T09:08:33.438Z,0.3
2019-01-15T09:09:23.208Z,0.3
2019-01-15T09:10:13.564Z,0.4
2019-01-15T09:11:03.818Z,0.2
2019-01-15T09:11:52.904Z,0
2019-01-15T09:12:43.244Z,-0.1
2019-01-15T09:13:33.789Z,-0.2
2019-01-15T09:14:29.804Z,-0.2
2019-01-15T09:15:13.934Z,-0.1
2019-01-15T09:16:04.001Z,-0.1
2019-01-15T09:16:54.323Z,-0.1
2019-01-15T09:17:44.058Z,0
2019-01-15T09:18:34.188Z,0.1
2019-01-15T09:19:23.702Z,-0.2
2019-01-15T09:20:14.477Z,-0.2
2019-01-15T09:21:04.298Z,-0.2
2019-01-15T09:21:54.308Z,-0.1
2019-01-15T09:22:44.405Z,-0.1
2019-01-15T09:23:34.485Z,-0.1
2019-01-15T09:24:24.506Z,-0.1
2019-01-15T09:25:14.580Z,0.1
2019-01-15T09:26:04.768Z,0.1
2019-01-15T09:26:54.685Z,-0.1
2019-01-15T09:27:44.942Z,-0.1
2019-01-15T09:28:34.515Z,-0.2
2019-01-15T09:29:24.575Z,0
2019-01-15T09:30:14.900Z,0.1
2019-01-15T09:31:04.960Z,0.1
2019-01-15T09:31:55.035Z,-0.1
2019-01-15T09:32:44.856Z,-0.2
2019-01-15T09:33:35.130Z,-0.1
2019-01-15T09:34:24.912Z,-0.2
2019-01-15T09:35:15.246Z,-0.1
2019-01-15T09:36:05.297Z,-0.2
2019-01-15T09:36:55.088Z,-0.1
2019-01-15T09:37:45.405Z,-0.1
2019-01-15T09:38:35.462Z,0.1
2019-01-15T09:39:25.247Z,0
2019-01-15T09:40:15.577Z,-0.1
2019-01-15T09:41:05.632Z,-0.1
2019-01-15T09:41:55.407Z,0
2019-01-15T09:42:45.749Z,0.1
2019-01-15T09:43:35.531Z,-0.2
2019-01-15T09:44:25.866Z,-0.1
2019-01-15T09:45:15.982Z,-0.1
2019-01-15T09:46:05.694Z,0.1
2019-01-15T09:46:55.744Z,0.2
2019-01-15T09:47:45.829Z,0
2019-01-15T09:48:36.141Z,0.1
2019-01-15T09:49:26.208Z,-0.1
2019-01-15T09:50:15.962Z,-0.1
2019-01-15T09:51:06.044Z,-0.3
2019-01-15T09:51:56.353Z,-0.3
2019-01-15T09:52:46.136Z,-0.1
2019-01-15T09:53:36.193Z,-0.1
2019-01-15T09:54:26.536Z,0.1
2019-01-15T09:55:16.601Z,-0.3
2019-01-15T09:56:06.656Z,-0.3
2019-01-15T09:56:56.419Z,-0.2
2019-01-15T09:57:46.493Z,0.1
2019-01-15T09:58:36.836Z,0.3
2019-01-15T09:59:26.605Z,0.3
2019-01-15T10:00:16.928Z,0.4
2019-01-15T10:01:06.988Z,0.4
2019-01-15T10:01:57.038Z,0.3
2019-01-15T10:02:47.106Z,0
2019-01-15T10:03:37.135Z,-0.1
2019-01-15T10:04:27.308Z,0.1
2019-01-15T10:05:17.263Z,0.1
2019-01-15T10:07:45.110Z,0.1
2019-01-15T10:08:34.598Z,-0.1
2019-01-15T10:09:25.228Z,0.1
2019-01-15T10:10:14.520Z,0.3
2019-01-15T10:11:04.764Z,0.1
2019-01-15T10:11:55.380Z,0.5
2019-01-15T10:12:45.165Z,0.3
2019-01-15T10:13:35.492Z,0.3
2019-01-15T10:14:25.547Z,0.1
2019-01-15T10:15:14.777Z,-0.1
2019-01-15T10:16:05.669Z,-0.1
2019-01-15T10:16:55.724Z,0.1
2019-01-15T10:17:45.505Z,-0.1
2019-01-15T10:18:35.827Z,-0.1
2019-01-15T10:19:25.898Z,-0.2
2019-01-15T10:20:15.931Z,-0.2
2019-01-15T10:21:05.987Z,-0.1
2019-01-15T10:21:55.797Z,0.2
2019-01-15T10:22:46.109Z,0.3
2019-01-15T10:23:36.157Z,0.2
2019-01-15T10:24:25.954Z,0.1
2019-01-15T10:25:16.275Z,0.3
2019-01-15T10:26:06.321Z,0.3
2019-01-15T10:26:56.386Z,0.1
2019-01-15T10:27:46.479Z,0.1
2019-01-15T10:28:36.513Z,0.2
2019-01-15T10:29:26.554Z,0.3
2019-01-15T10:30:16.621Z,0.2
2019-01-15T10:31:06.664Z,0.1
2019-01-15T10:31:56.727Z,0.1
2019-01-15T10:32:46.506Z,0.1
2019-01-15T10:33:36.823Z,0.1
2019-01-15T10:34:26.886Z,0.1
2019-01-15T10:35:16.949Z,0.1
2019-01-15T10:36:06.997Z,0.3
2019-01-15T10:36:56.771Z,0.3
2019-01-15T10:37:46.836Z,0.3
2019-01-15T10:38:36.893Z,0.4
2019-01-15T10:39:27.231Z,0.1
2019-01-15T10:40:16.748Z,0.3
2019-01-15T10:41:07.349Z,0.4
2019-01-15T10:41:57.407Z,0.3
2019-01-15T10:42:47.176Z,0.3
2019-01-15T10:43:37.511Z,0.2
2019-01-15T10:44:27.572Z,0.3
2019-01-15T10:45:17.058Z,0.1
2019-01-15T10:46:07.391Z,0.2
2019-01-15T10:46:57.302Z,0.1
2019-01-15T10:47:47.520Z,0.1
2019-01-15T10:48:37.592Z,0.1
2019-01-15T10:49:27.640Z,0.3
2019-01-15T10:50:17.691Z,0.3
2019-01-15T10:51:08.020Z,0
2019-01-15T10:51:58.072Z,0.3
2019-01-15T10:52:48.135Z,0.1
2019-01-15T10:53:38.175Z,0.1
2019-01-15T10:54:27.953Z,0
2019-01-15T10:55:18.282Z,0
2019-01-15T10:56:08.352Z,0.1
2019-01-15T10:56:58.123Z,0.3
2019-01-15T10:57:48.455Z,0.4
2019-01-15T10:58:38.507Z,0.3
2019-01-15T10:59:28.314Z,0.3
2019-01-15T11:00:18.067Z,0.3
2019-01-15T11:01:08.692Z,0.4
2019-01-15T11:01:58.175Z,0.3
2019-01-15T11:02:48.532Z,0.2
2019-01-15T11:03:38.854Z,0.3
2019-01-15T11:04:28.657Z,0.3
2019-01-15T11:05:18.201Z,0.1
2019-01-15T11:06:08.194Z,0.1
2019-01-15T11:06:59.092Z,0.3
2019-01-15T11:07:49.127Z,0.1
2019-01-15T11:08:39.231Z,-0.1
2019-01-15T11:09:28.765Z,-0.1
2019-01-15T11:10:19.016Z,0.2
2019-01-15T11:11:09.354Z,0.1
2019-01-15T11:11:59.404Z,0.1
2019-01-15T11:12:49.459Z,0.3
2019-01-15T11:13:39.251Z,0.5
2019-01-15T11:14:29.622Z,0.6
2019-01-15T11:15:19.626Z,0.7
2019-01-15T11:16:09.691Z,0.6
2019-01-15T11:16:59.756Z,0.6
2019-01-15T11:17:49.806Z,0.6
2019-01-15T11:18:41.066Z,0.1
2019-01-15T11:19:29.938Z,0.1
2019-01-15T11:20:19.968Z,0.1
2019-01-15T11:21:10.075Z,0.2
2019-01-15T11:22:00.073Z,0.1
2019-01-15T11:22:50.143Z,0.2
2019-01-15T11:23:39.918Z,0
2019-01-15T11:24:29.973Z,-0.1
2019-01-15T11:25:20.052Z,0.1